sensor_id;sensor_type;location;lat;lon;timestamp;P1;durP1;ratioP1;P2;durP2;ratioP2
73980;SDS011;62348;51.412;5.436;2022-09-28T00:01:14;9.80;;;6.60;;
73980;SDS011;62348;51.412;5.436;2022-09-28T00:03:47;7.53;;;5.55;;
73980;SDS011;62348;51.412;5.436;2022-09-28T00:06:16;9.85;;;8.05;;
73980;SDS011;62348;51.412;5.436;2022-09-28T00:08:44;7.32;;;6.47;;
73980;SDS011;62348;51.412;5.436;2022-09-28T00:11:11;8.40;;;6.78;;
73980;SDS011;62348;51.412;5.436;2022-09-28T00:13:39;9.98;;;6.55;;
73980;SDS011;62348;51.412;5.436;2022-09-28T00:16:07;8.25;;;7.45;;
73980;SDS011;62348;51.412;5.436;2022-09-28T00:18:38;8.57;;;7.18;;
73980;SDS011;62348;51.412;5.436;2022-09-28T00:21:11;9.00;;;6.95;;
73980;SDS011;62348;51.412;5.436;2022-09-28T00:23:38;10.88;;;7.30;;
73980;SDS011;62348;51.412;5.436;2022-09-28T00:26:22;11.45;;;8.27;;
73980;SDS011;62348;51.412;5.436;2022-09-28T00:28:52;10.60;;;8.25;;
73980;SDS011;62348;51.412;5.436;2022-09-28T00:31:22;9.70;;;8.35;;
73980;SDS011;62348;51.412;5.436;2022-09-28T00:33:49;12.27;;;9.30;;
73980;SDS011;62348;51.412;5.436;2022-09-28T00:36:15;11.38;;;10.25;;
73980;SDS011;62348;51.412;5.436;2022-09-28T00:38:41;15.00;;;9.68;;
73980;SDS011;62348;51.412;5.436;2022-09-28T00:41:07;12.35;;;10.70;;
73980;SDS011;62348;51.412;5.436;2022-09-28T00:43:34;12.55;;;10.80;;
73980;SDS011;62348;51.412;5.436;2022-09-28T00:46:11;13.65;;;10.45;;
73980;SDS011;62348;51.412;5.436;2022-09-28T00:48:38;15.35;;;10.65;;
73980;SDS011;62348;51.412;5.436;2022-09-28T00:51:12;12.98;;;10.98;;
73980;SDS011;62348;51.412;5.436;2022-09-28T00:53:38;13.93;;;10.48;;
73980;SDS011;62348;51.412;5.436;2022-09-28T00:56:09;14.80;;;9.45;;
73980;SDS011;62348;51.412;5.436;2022-09-28T00:58:45;10.90;;;8.82;;
73980;SDS011;62348;51.412;5.436;2022-09-28T01:01:13;11.57;;;9.32;;
73980;SDS011;62348;51.412;5.436;2022-09-28T01:03:39;9.90;;;8.90;;
73980;SDS011;62348;51.412;5.436;2022-09-28T01:06:09;12.15;;;8.73;;
73980;SDS011;62348;51.412;5.436;2022-09-28T01:08:39;10.73;;;8.88;;
73980;SDS011;62348;51.412;5.436;2022-09-28T01:11:08;12.52;;;10.82;;
73980;SDS011;62348;51.412;5.436;2022-09-28T01:13:34;12.27;;;10.35;;
73980;SDS011;62348;51.412;5.436;2022-09-28T01:16:10;12.40;;;10.15;;
73980;SDS011;62348;51.412;5.436;2022-09-28T01:18:54;12.15;;;10.98;;
73980;SDS011;62348;51.412;5.436;2022-09-28T01:21:44;15.75;;;11.70;;
73980;SDS011;62348;51.412;5.436;2022-09-28T01:24:20;15.43;;;12.10;;
73980;SDS011;62348;51.412;5.436;2022-09-28T01:27:14;15.48;;;12.63;;
73980;SDS011;62348;51.412;5.436;2022-09-28T01:29:45;15.88;;;13.50;;
73980;SDS011;62348;51.412;5.436;2022-09-28T01:35:02;15.02;;;13.00;;
73980;SDS011;62348;51.412;5.436;2022-09-28T01:37:41;18.83;;;14.75;;
73980;SDS011;62348;51.412;5.436;2022-09-28T01:40:08;18.65;;;15.38;;
73980;SDS011;62348;51.412;5.436;2022-09-28T01:42:36;19.80;;;15.15;;
73980;SDS011;62348;51.412;5.436;2022-09-28T01:45:04;22.02;;;16.52;;
73980;SDS011;62348;51.412;5.436;2022-09-28T01:47:36;18.17;;;14.57;;
73980;SDS011;62348;51.412;5.436;2022-09-28T01:50:05;19.50;;;16.27;;
73980;SDS011;62348;51.412;5.436;2022-09-28T01:52:53;18.77;;;15.30;;
73980;SDS011;62348;51.412;5.436;2022-09-28T01:57:57;19.48;;;15.50;;
73980;SDS011;62348;51.412;5.436;2022-09-28T02:00:45;19.13;;;15.73;;
73980;SDS011;62348;51.412;5.436;2022-09-28T02:03:17;17.83;;;13.88;;
73980;SDS011;62348;51.412;5.436;2022-09-28T02:05:50;17.90;;;14.85;;
73980;SDS011;62348;51.412;5.436;2022-09-28T02:08:23;16.83;;;14.43;;
73980;SDS011;62348;51.412;5.436;2022-09-28T02:11:07;14.93;;;13.18;;
73980;SDS011;62348;51.412;5.436;2022-09-28T02:18:37;17.40;;;13.00;;
73980;SDS011;62348;51.412;5.436;2022-09-28T02:24:09;15.90;;;12.65;;
73980;SDS011;62348;51.412;5.436;2022-09-28T02:26:40;16.35;;;13.18;;
73980;SDS011;62348;51.412;5.436;2022-09-28T02:29:08;15.40;;;13.05;;
73980;SDS011;62348;51.412;5.436;2022-09-28T02:31:34;16.95;;;12.65;;
73980;SDS011;62348;51.412;5.436;2022-09-28T02:34:00;15.40;;;13.43;;
73980;SDS011;62348;51.412;5.436;2022-09-28T02:36:25;14.98;;;12.75;;
73980;SDS011;62348;51.412;5.436;2022-09-28T02:38:52;17.02;;;13.50;;
73980;SDS011;62348;51.412;5.436;2022-09-28T02:43:59;17.50;;;12.07;;
73980;SDS011;62348;51.412;5.436;2022-09-28T02:49:33;15.75;;;12.60;;
73980;SDS011;62348;51.412;5.436;2022-09-28T02:54:53;12.75;;;10.65;;
73980;SDS011;62348;51.412;5.436;2022-09-28T03:00:43;19.88;;;10.45;;
73980;SDS011;62348;51.412;5.436;2022-09-28T03:03:43;10.63;;;9.52;;
73980;SDS011;62348;51.412;5.436;2022-09-28T03:06:31;12.65;;;9.65;;
73980;SDS011;62348;51.412;5.436;2022-09-28T03:09:23;12.05;;;9.98;;
73980;SDS011;62348;51.412;5.436;2022-09-28T03:11:57;12.90;;;9.25;;
73980;SDS011;62348;51.412;5.436;2022-09-28T03:14:27;12.57;;;10.23;;
73980;SDS011;62348;51.412;5.436;2022-09-28T03:16:52;11.98;;;9.93;;
73980;SDS011;62348;51.412;5.436;2022-09-28T03:19:19;13.55;;;10.30;;
73980;SDS011;62348;51.412;5.436;2022-09-28T03:21:48;15.25;;;11.02;;
73980;SDS011;62348;51.412;5.436;2022-09-28T03:24:14;14.55;;;10.32;;
73980;SDS011;62348;51.412;5.436;2022-09-28T03:26:39;15.02;;;12.10;;
73980;SDS011;62348;51.412;5.436;2022-09-28T03:29:05;12.48;;;9.52;;
73980;SDS011;62348;51.412;5.436;2022-09-28T03:31:30;12.80;;;10.13;;
73980;SDS011;62348;51.412;5.436;2022-09-28T03:33:56;15.77;;;10.02;;
73980;SDS011;62348;51.412;5.436;2022-09-28T03:36:21;12.70;;;9.52;;
73980;SDS011;62348;51.412;5.436;2022-09-28T03:38:46;14.60;;;11.85;;
73980;SDS011;62348;51.412;5.436;2022-09-28T03:41:12;10.93;;;9.73;;
73980;SDS011;62348;51.412;5.436;2022-09-28T03:43:37;11.82;;;10.00;;
73980;SDS011;62348;51.412;5.436;2022-09-28T03:46:03;12.93;;;10.10;;
73980;SDS011;62348;51.412;5.436;2022-09-28T03:48:31;13.68;;;10.23;;
73980;SDS011;62348;51.412;5.436;2022-09-28T03:51:02;14.13;;;10.30;;
73980;SDS011;62348;51.412;5.436;2022-09-28T03:53:29;11.43;;;9.57;;
73980;SDS011;62348;51.412;5.436;2022-09-28T03:55:55;13.95;;;9.95;;
73980;SDS011;62348;51.412;5.436;2022-09-28T03:58:26;13.20;;;9.60;;
73980;SDS011;62348;51.412;5.436;2022-09-28T04:00:51;11.55;;;9.68;;
73980;SDS011;62348;51.412;5.436;2022-09-28T04:03:17;14.57;;;8.45;;
73980;SDS011;62348;51.412;5.436;2022-09-28T04:05:49;9.50;;;8.45;;
73980;SDS011;62348;51.412;5.436;2022-09-28T04:08:16;11.70;;;9.32;;
73980;SDS011;62348;51.412;5.436;2022-09-28T04:10:41;11.63;;;9.38;;
73980;SDS011;62348;51.412;5.436;2022-09-28T04:13:07;12.10;;;8.52;;
73980;SDS011;62348;51.412;5.436;2022-09-28T04:15:32;13.90;;;9.85;;
73980;SDS011;62348;51.412;5.436;2022-09-28T04:17:58;11.23;;;10.13;;
73980;SDS011;62348;51.412;5.436;2022-09-28T04:20:23;14.23;;;10.10;;
73980;SDS011;62348;51.412;5.436;2022-09-28T04:22:49;13.15;;;9.93;;
73980;SDS011;62348;51.412;5.436;2022-09-28T04:25:14;11.95;;;9.98;;
73980;SDS011;62348;51.412;5.436;2022-09-28T04:27:40;15.68;;;11.25;;
73980;SDS011;62348;51.412;5.436;2022-09-28T04:30:23;13.45;;;10.93;;
73980;SDS011;62348;51.412;5.436;2022-09-28T04:32:49;13.48;;;11.07;;
73980;SDS011;62348;51.412;5.436;2022-09-28T04:35:14;15.13;;;10.75;;
73980;SDS011;62348;51.412;5.436;2022-09-28T04:37:40;11.48;;;10.05;;
73980;SDS011;62348;51.412;5.436;2022-09-28T04:40:05;12.98;;;10.38;;
73980;SDS011;62348;51.412;5.436;2022-09-28T04:42:32;15.82;;;11.00;;
73980;SDS011;62348;51.412;5.436;2022-09-28T04:44:57;15.63;;;10.70;;
73980;SDS011;62348;51.412;5.436;2022-09-28T04:47:24;12.63;;;10.05;;
73980;SDS011;62348;51.412;5.436;2022-09-28T04:49:50;13.05;;;10.35;;
73980;SDS011;62348;51.412;5.436;2022-09-28T04:52:16;12.88;;;9.60;;
73980;SDS011;62348;51.412;5.436;2022-09-28T04:54:41;14.07;;;10.02;;
73980;SDS011;62348;51.412;5.436;2022-09-28T04:57:06;13.68;;;9.90;;
73980;SDS011;62348;51.412;5.436;2022-09-28T04:59:32;13.13;;;9.32;;
73980;SDS011;62348;51.412;5.436;2022-09-28T05:01:57;10.45;;;8.85;;
73980;SDS011;62348;51.412;5.436;2022-09-28T05:04:23;13.13;;;8.68;;
73980;SDS011;62348;51.412;5.436;2022-09-28T05:06:48;11.98;;;8.90;;
73980;SDS011;62348;51.412;5.436;2022-09-28T05:09:14;13.23;;;9.40;;
73980;SDS011;62348;51.412;5.436;2022-09-28T05:11:39;11.23;;;9.13;;
73980;SDS011;62348;51.412;5.436;2022-09-28T05:14:04;12.52;;;8.15;;
73980;SDS011;62348;51.412;5.436;2022-09-28T05:16:30;11.32;;;8.68;;
73980;SDS011;62348;51.412;5.436;2022-09-28T05:18:57;12.45;;;8.02;;
73980;SDS011;62348;51.412;5.436;2022-09-28T05:21:23;14.38;;;8.88;;
73980;SDS011;62348;51.412;5.436;2022-09-28T05:23:50;12.00;;;8.32;;
73980;SDS011;62348;51.412;5.436;2022-09-28T05:26:16;10.80;;;8.07;;
73980;SDS011;62348;51.412;5.436;2022-09-28T05:28:42;9.65;;;8.68;;
73980;SDS011;62348;51.412;5.436;2022-09-28T05:31:08;10.25;;;8.35;;
73980;SDS011;62348;51.412;5.436;2022-09-28T05:33:34;12.95;;;9.13;;
73980;SDS011;62348;51.412;5.436;2022-09-28T05:36:01;13.68;;;9.35;;
73980;SDS011;62348;51.412;5.436;2022-09-28T05:38:27;9.10;;;8.15;;
73980;SDS011;62348;51.412;5.436;2022-09-28T05:40:53;11.52;;;9.35;;
73980;SDS011;62348;51.412;5.436;2022-09-28T05:43:18;13.68;;;9.15;;
73980;SDS011;62348;51.412;5.436;2022-09-28T05:45:43;10.73;;;9.30;;
73980;SDS011;62348;51.412;5.436;2022-09-28T05:48:09;12.05;;;9.57;;
73980;SDS011;62348;51.412;5.436;2022-09-28T05:50:34;12.63;;;10.88;;
73980;SDS011;62348;51.412;5.436;2022-09-28T05:53:01;16.80;;;11.55;;
73980;SDS011;62348;51.412;5.436;2022-09-28T05:55:35;13.95;;;10.55;;
73980;SDS011;62348;51.412;5.436;2022-09-28T05:58:02;14.85;;;11.13;;
73980;SDS011;62348;51.412;5.436;2022-09-28T06:00:29;17.10;;;11.13;;
73980;SDS011;62348;51.412;5.436;2022-09-28T06:03:00;16.75;;;11.30;;
73980;SDS011;62348;51.412;5.436;2022-09-28T06:05:29;15.07;;;11.90;;
73980;SDS011;62348;51.412;5.436;2022-09-28T06:07:56;16.65;;;11.80;;
73980;SDS011;62348;51.412;5.436;2022-09-28T06:10:24;15.48;;;12.27;;
73980;SDS011;62348;51.412;5.436;2022-09-28T06:12:51;15.13;;;12.88;;
73980;SDS011;62348;51.412;5.436;2022-09-28T06:15:18;16.67;;;12.80;;
73980;SDS011;62348;51.412;5.436;2022-09-28T06:17:43;16.17;;;13.85;;
73980;SDS011;62348;51.412;5.436;2022-09-28T06:20:09;16.95;;;12.90;;
73980;SDS011;62348;51.412;5.436;2022-09-28T06:22:35;19.17;;;12.82;;
73980;SDS011;62348;51.412;5.436;2022-09-28T06:25:01;15.65;;;12.82;;
73980;SDS011;62348;51.412;5.436;2022-09-28T06:27:27;17.20;;;12.85;;
73980;SDS011;62348;51.412;5.436;2022-09-28T06:29:52;17.05;;;13.77;;
73980;SDS011;62348;51.412;5.436;2022-09-28T06:32:17;20.17;;;14.85;;
73980;SDS011;62348;51.412;5.436;2022-09-28T06:34:43;20.60;;;13.75;;
73980;SDS011;62348;51.412;5.436;2022-09-28T06:37:08;17.25;;;12.70;;
73980;SDS011;62348;51.412;5.436;2022-09-28T06:39:34;16.08;;;12.63;;
73980;SDS011;62348;51.412;5.436;2022-09-28T06:41:59;14.32;;;12.82;;
73980;SDS011;62348;51.412;5.436;2022-09-28T06:44:27;13.98;;;11.52;;
73980;SDS011;62348;51.412;5.436;2022-09-28T06:46:53;14.70;;;11.30;;
73980;SDS011;62348;51.412;5.436;2022-09-28T06:49:19;13.63;;;11.70;;
73980;SDS011;62348;51.412;5.436;2022-09-28T06:51:46;14.10;;;11.07;;
73980;SDS011;62348;51.412;5.436;2022-09-28T06:54:11;14.32;;;12.10;;
73980;SDS011;62348;51.412;5.436;2022-09-28T06:56:37;15.45;;;10.88;;
73980;SDS011;62348;51.412;5.436;2022-09-28T06:59:02;16.73;;;11.20;;
73980;SDS011;62348;51.412;5.436;2022-09-28T07:01:28;13.00;;;11.55;;
73980;SDS011;62348;51.412;5.436;2022-09-28T07:03:53;13.55;;;10.70;;
73980;SDS011;62348;51.412;5.436;2022-09-28T07:06:19;15.27;;;10.48;;
73980;SDS011;62348;51.412;5.436;2022-09-28T07:08:48;13.60;;;10.95;;
73980;SDS011;62348;51.412;5.436;2022-09-28T07:11:13;13.85;;;11.20;;
73980;SDS011;62348;51.412;5.436;2022-09-28T07:13:39;16.83;;;10.77;;
73980;SDS011;62348;51.412;5.436;2022-09-28T07:16:04;17.05;;;11.73;;
73980;SDS011;62348;51.412;5.436;2022-09-28T07:18:30;15.45;;;10.02;;
73980;SDS011;62348;51.412;5.436;2022-09-28T07:20:56;12.27;;;10.00;;
73980;SDS011;62348;51.412;5.436;2022-09-28T07:23:21;12.75;;;9.75;;
73980;SDS011;62348;51.412;5.436;2022-09-28T07:25:47;15.18;;;9.20;;
73980;SDS011;62348;51.412;5.436;2022-09-28T07:28:14;11.35;;;8.90;;
73980;SDS011;62348;51.412;5.436;2022-09-28T07:30:41;14.18;;;8.15;;
73980;SDS011;62348;51.412;5.436;2022-09-28T07:33:08;11.82;;;7.90;;
73980;SDS011;62348;51.412;5.436;2022-09-28T07:35:36;9.00;;;6.88;;
73980;SDS011;62348;51.412;5.436;2022-09-28T07:38:05;10.40;;;7.75;;
73980;SDS011;62348;51.412;5.436;2022-09-28T07:40:32;9.00;;;6.75;;
73980;SDS011;62348;51.412;5.436;2022-09-28T07:43:17;9.57;;;7.72;;
73980;SDS011;62348;51.412;5.436;2022-09-28T07:45:45;10.68;;;7.60;;
73980;SDS011;62348;51.412;5.436;2022-09-28T07:48:16;8.40;;;7.60;;
73980;SDS011;62348;51.412;5.436;2022-09-28T07:50:48;10.90;;;7.20;;
73980;SDS011;62348;51.412;5.436;2022-09-28T07:53:16;12.00;;;7.38;;
73980;SDS011;62348;51.412;5.436;2022-09-28T07:55:51;13.65;;;7.35;;
73980;SDS011;62348;51.412;5.436;2022-09-28T07:58:18;12.15;;;7.38;;
73980;SDS011;62348;51.412;5.436;2022-09-28T08:00:44;9.25;;;7.30;;
73980;SDS011;62348;51.412;5.436;2022-09-28T08:03:12;10.38;;;7.10;;
73980;SDS011;62348;51.412;5.436;2022-09-28T08:05:38;10.40;;;7.43;;
73980;SDS011;62348;51.412;5.436;2022-09-28T08:08:05;7.95;;;6.78;;
73980;SDS011;62348;51.412;5.436;2022-09-28T08:10:30;10.50;;;7.03;;
73980;SDS011;62348;51.412;5.436;2022-09-28T08:12:56;9.90;;;7.15;;
73980;SDS011;62348;51.412;5.436;2022-09-28T08:15:24;7.47;;;5.80;;
73980;SDS011;62348;51.412;5.436;2022-09-28T08:17:50;10.45;;;6.53;;
73980;SDS011;62348;51.412;5.436;2022-09-28T08:20:15;8.50;;;6.03;;
73980;SDS011;62348;51.412;5.436;2022-09-28T08:23:06;8.57;;;6.10;;
73980;SDS011;62348;51.412;5.436;2022-09-28T08:25:33;8.05;;;6.03;;
73980;SDS011;62348;51.412;5.436;2022-09-28T08:28:05;8.00;;;5.00;;
73980;SDS011;62348;51.412;5.436;2022-09-28T08:30:33;6.95;;;5.10;;
73980;SDS011;62348;51.412;5.436;2022-09-28T08:32:59;8.73;;;5.70;;
73980;SDS011;62348;51.412;5.436;2022-09-28T08:35:24;8.38;;;5.45;;
73980;SDS011;62348;51.412;5.436;2022-09-28T08:37:50;8.15;;;5.20;;
73980;SDS011;62348;51.412;5.436;2022-09-28T08:40:19;7.72;;;5.25;;
73980;SDS011;62348;51.412;5.436;2022-09-28T08:42:57;9.77;;;4.80;;
73980;SDS011;62348;51.412;5.436;2022-09-28T08:45:27;5.47;;;4.57;;
73980;SDS011;62348;51.412;5.436;2022-09-28T08:50:55;6.55;;;5.18;;
73980;SDS011;62348;51.412;5.436;2022-09-28T08:56:17;6.22;;;4.95;;
73980;SDS011;62348;51.412;5.436;2022-09-28T08:58:49;6.97;;;4.75;;
73980;SDS011;62348;51.412;5.436;2022-09-28T09:01:20;6.07;;;4.57;;
73980;SDS011;62348;51.412;5.436;2022-09-28T09:03:48;8.27;;;4.63;;
73980;SDS011;62348;51.412;5.436;2022-09-28T09:06:27;5.32;;;4.35;;
73980;SDS011;62348;51.412;5.436;2022-09-28T09:11:56;5.32;;;3.85;;
73980;SDS011;62348;51.412;5.436;2022-09-28T09:17:21;6.85;;;4.13;;
73980;SDS011;62348;51.412;5.436;2022-09-28T09:25:24;5.78;;;3.72;;
73980;SDS011;62348;51.412;5.436;2022-09-28T09:28:10;6.95;;;4.28;;
73980;SDS011;62348;51.412;5.436;2022-09-28T09:38:47;6.53;;;4.40;;
73980;SDS011;62348;51.412;5.436;2022-09-28T09:44:10;5.90;;;5.05;;
73980;SDS011;62348;51.412;5.436;2022-09-28T09:46:46;5.63;;;5.07;;
73980;SDS011;62348;51.412;5.436;2022-09-28T09:49:38;6.50;;;5.65;;
73980;SDS011;62348;51.412;5.436;2022-09-28T09:57:49;7.60;;;5.22;;
73980;SDS011;62348;51.412;5.436;2022-09-28T10:00:18;8.77;;;5.68;;
73980;SDS011;62348;51.412;5.436;2022-09-28T10:02:44;8.18;;;4.88;;
73980;SDS011;62348;51.412;5.436;2022-09-28T10:07:42;8.32;;;5.20;;
73980;SDS011;62348;51.412;5.436;2022-09-28T10:11:04;4.70;;;4.18;;
73980;SDS011;62348;51.412;5.436;2022-09-28T10:13:03;6.78;;;3.90;;
73980;SDS011;62348;51.412;5.436;2022-09-28T10:15:32;5.30;;;4.00;;
73980;SDS011;62348;51.412;5.436;2022-09-28T10:18:04;6.78;;;3.85;;
73980;SDS011;62348;51.412;5.436;2022-09-28T10:20:36;5.32;;;3.33;;
73980;SDS011;62348;51.412;5.436;2022-09-28T10:23:03;5.72;;;3.53;;
73980;SDS011;62348;51.412;5.436;2022-09-28T10:25:32;9.45;;;4.68;;
73980;SDS011;62348;51.412;5.436;2022-09-28T10:28:01;7.13;;;4.43;;
73980;SDS011;62348;51.412;5.436;2022-09-28T10:30:30;5.57;;;4.80;;
73980;SDS011;62348;51.412;5.436;2022-09-28T10:35:58;5.82;;;3.90;;
73980;SDS011;62348;51.412;5.436;2022-09-28T10:38:29;8.20;;;4.70;;
73980;SDS011;62348;51.412;5.436;2022-09-28T10:40:59;5.07;;;4.55;;
73980;SDS011;62348;51.412;5.436;2022-09-28T10:43:36;6.20;;;4.90;;
73980;SDS011;62348;51.412;5.436;2022-09-28T10:48:34;5.70;;;4.53;;
73980;SDS011;62348;51.412;5.436;2022-09-28T10:51:03;8.38;;;4.40;;
73980;SDS011;62348;51.412;5.436;2022-09-28T10:53:30;5.55;;;4.13;;
73980;SDS011;62348;51.412;5.436;2022-09-28T10:56:00;4.80;;;3.78;;
73980;SDS011;62348;51.412;5.436;2022-09-28T10:58:36;5.47;;;4.03;;
73980;SDS011;62348;51.412;5.436;2022-09-28T11:01:11;4.93;;;4.43;;
73980;SDS011;62348;51.412;5.436;2022-09-28T11:03:56;4.75;;;4.03;;
73980;SDS011;62348;51.412;5.436;2022-09-28T11:06:23;6.30;;;4.70;;
73980;SDS011;62348;51.412;5.436;2022-09-28T11:08:52;13.05;;;5.72;;
73980;SDS011;62348;51.412;5.436;2022-09-28T11:11:20;4.05;;;3.60;;
73980;SDS011;62348;51.412;5.436;2022-09-28T11:16:22;6.72;;;3.92;;
73980;SDS011;62348;51.412;5.436;2022-09-28T11:18:52;2.88;;;2.67;;
73980;SDS011;62348;51.412;5.436;2022-09-28T11:21:26;3.85;;;2.75;;
73980;SDS011;62348;51.412;5.436;2022-09-28T11:24:03;3.05;;;2.75;;
73980;SDS011;62348;51.412;5.436;2022-09-28T11:26:54;3.35;;;3.05;;
73980;SDS011;62348;51.412;5.436;2022-09-28T11:31:48;3.70;;;2.88;;
73980;SDS011;62348;51.412;5.436;2022-09-28T11:39:41;3.67;;;2.58;;
73980;SDS011;62348;51.412;5.436;2022-09-28T11:46:00;4.30;;;2.83;;
73980;SDS011;62348;51.412;5.436;2022-09-28T11:48:26;4.65;;;2.42;;
73980;SDS011;62348;51.412;5.436;2022-09-28T11:51:01;3.38;;;2.45;;
73980;SDS011;62348;51.412;5.436;2022-09-28T11:53:39;5.70;;;2.95;;
73980;SDS011;62348;51.412;5.436;2022-09-28T11:58:49;6.00;;;2.42;;
73980;SDS011;62348;51.412;5.436;2022-09-28T12:04:06;8.52;;;2.85;;
73980;SDS011;62348;51.412;5.436;2022-09-28T12:06:38;5.25;;;3.00;;
73980;SDS011;62348;51.412;5.436;2022-09-28T12:09:18;4.22;;;3.10;;
73980;SDS011;62348;51.412;5.436;2022-09-28T12:12:13;5.47;;;3.13;;
73980;SDS011;62348;51.412;5.436;2022-09-28T12:14:46;7.90;;;3.13;;
73980;SDS011;62348;51.412;5.436;2022-09-28T12:17:20;6.70;;;3.72;;
73980;SDS011;62348;51.412;5.436;2022-09-28T12:19:51;7.55;;;3.28;;
73980;SDS011;62348;51.412;5.436;2022-09-28T12:22:24;8.30;;;3.40;;
73980;SDS011;62348;51.412;5.436;2022-09-28T12:24:58;6.97;;;3.05;;
73980;SDS011;62348;51.412;5.436;2022-09-28T12:27:36;4.90;;;2.33;;
73980;SDS011;62348;51.412;5.436;2022-09-28T12:30:12;4.03;;;2.22;;
73980;SDS011;62348;51.412;5.436;2022-09-28T12:32:48;2.85;;;1.80;;
73980;SDS011;62348;51.412;5.436;2022-09-28T12:51:57;2.00;;;1.50;;
73980;SDS011;62348;51.412;5.436;2022-09-28T13:10:45;2.30;;;1.80;;
73980;SDS011;62348;51.412;5.436;2022-09-28T13:24:50;3.75;;;1.08;;
73980;SDS011;62348;51.412;5.436;2022-09-28T13:27:36;2.15;;;0.98;;
73980;SDS011;62348;51.412;5.436;2022-09-28T13:30:04;3.40;;;1.10;;
73980;SDS011;62348;51.412;5.436;2022-09-28T13:32:32;1.60;;;1.10;;
73980;SDS011;62348;51.412;5.436;2022-09-28T13:35:00;2.72;;;1.25;;
73980;SDS011;62348;51.412;5.436;2022-09-28T13:37:26;2.15;;;1.38;;
73980;SDS011;62348;51.412;5.436;2022-09-28T13:39:56;3.33;;;1.45;;
73980;SDS011;62348;51.412;5.436;2022-09-28T13:47:48;3.92;;;1.00;;
73980;SDS011;62348;51.412;5.436;2022-09-28T14:01:28;1.15;;;0.88;;
73980;SDS011;62348;51.412;5.436;2022-09-28T14:06:55;0.73;;;0.60;;
73980;SDS011;62348;51.412;5.436;2022-09-28T14:10:06;0.80;;;0.80;;
73980;SDS011;62348;51.412;5.436;2022-09-28T14:12:51;1.30;;;0.70;;
73980;SDS011;62348;51.412;5.436;2022-09-28T14:17:57;0.85;;;0.50;;
73980;SDS011;62348;51.412;5.436;2022-09-28T14:20:29;2.15;;;0.70;;
73980;SDS011;62348;51.412;5.436;2022-09-28T14:26:02;1.23;;;0.57;;
73980;SDS011;62348;51.412;5.436;2022-09-28T14:31:31;1.05;;;0.85;;
73980;SDS011;62348;51.412;5.436;2022-09-28T14:34:00;2.35;;;0.90;;
73980;SDS011;62348;51.412;5.436;2022-09-28T14:36:35;1.45;;;1.02;;
73980;SDS011;62348;51.412;5.436;2022-09-28T14:39:27;3.63;;;1.42;;
73980;SDS011;62348;51.412;5.436;2022-09-28T14:42:15;1.40;;;1.15;;
73980;SDS011;62348;51.412;5.436;2022-09-28T14:47:35;1.08;;;1.05;;
73980;SDS011;62348;51.412;5.436;2022-09-28T14:50:16;2.33;;;1.00;;
73980;SDS011;62348;51.412;5.436;2022-09-28T14:52:50;5.15;;;1.15;;
73980;SDS011;62348;51.412;5.436;2022-09-28T14:55:18;1.60;;;1.10;;
73980;SDS011;62348;51.412;5.436;2022-09-28T14:57:52;5.20;;;1.38;;
73980;SDS011;62348;51.412;5.436;2022-09-28T15:00:21;1.33;;;1.23;;
73980;SDS011;62348;51.412;5.436;2022-09-28T15:02:50;3.22;;;2.00;;
73980;SDS011;62348;51.412;5.436;2022-09-28T15:05:21;2.45;;;1.20;;
73980;SDS011;62348;51.412;5.436;2022-09-28T15:07:51;4.73;;;1.50;;
73980;SDS011;62348;51.412;5.436;2022-09-28T15:12:55;4.25;;;1.45;;
73980;SDS011;62348;51.412;5.436;2022-09-28T15:15:29;1.98;;;1.05;;
73980;SDS011;62348;51.412;5.436;2022-09-28T15:18:01;2.92;;;1.00;;
73980;SDS011;62348;51.412;5.436;2022-09-28T15:20:40;1.85;;;0.80;;
73980;SDS011;62348;51.412;5.436;2022-09-28T15:23:52;2.50;;;0.77;;
73980;SDS011;62348;51.412;5.436;2022-09-28T15:26:04;2.25;;;0.90;;
73980;SDS011;62348;51.412;5.436;2022-09-28T15:28:33;2.28;;;1.20;;
73980;SDS011;62348;51.412;5.436;2022-09-28T15:31:00;1.95;;;0.90;;
73980;SDS011;62348;51.412;5.436;2022-09-28T15:33:31;1.70;;;0.95;;
73980;SDS011;62348;51.412;5.436;2022-09-28T15:36:18;1.77;;;1.17;;
73980;SDS011;62348;51.412;5.436;2022-09-28T15:39:04;1.50;;;0.40;;
73980;SDS011;62348;51.412;5.436;2022-09-28T15:41:36;1.75;;;0.60;;
73980;SDS011;62348;51.412;5.436;2022-09-28T15:46:34;2.22;;;2.00;;
73980;SDS011;62348;51.412;5.436;2022-09-28T15:49:02;1.02;;;0.88;;
73980;SDS011;62348;51.412;5.436;2022-09-28T15:51:29;1.58;;;1.00;;
73980;SDS011;62348;51.412;5.436;2022-09-28T15:54:11;3.95;;;2.30;;
73980;SDS011;62348;51.412;5.436;2022-09-28T15:56:55;0.88;;;0.70;;
73980;SDS011;62348;51.412;5.436;2022-09-28T16:02:10;1.38;;;0.50;;
73980;SDS011;62348;51.412;5.436;2022-09-28T16:07:37;1.65;;;0.60;;
73980;SDS011;62348;51.412;5.436;2022-09-28T16:17:36;1.17;;;0.55;;
73980;SDS011;62348;51.412;5.436;2022-09-28T16:22:59;0.82;;;0.60;;
73980;SDS011;62348;51.412;5.436;2022-09-28T16:25:59;2.00;;;0.63;;
73980;SDS011;62348;51.412;5.436;2022-09-28T16:33:42;1.38;;;0.38;;
73980;SDS011;62348;51.412;5.436;2022-09-28T16:36:11;0.40;;;0.40;;
73980;SDS011;62348;51.412;5.436;2022-09-28T16:38:38;0.82;;;0.50;;
73980;SDS011;62348;51.412;5.436;2022-09-28T16:41:08;2.67;;;0.60;;
73980;SDS011;62348;51.412;5.436;2022-09-28T16:43:35;1.20;;;0.70;;
73980;SDS011;62348;51.412;5.436;2022-09-28T16:46:04;1.83;;;0.80;;
73980;SDS011;62348;51.412;5.436;2022-09-28T16:48:33;1.40;;;0.90;;
73980;SDS011;62348;51.412;5.436;2022-09-28T16:51:03;2.08;;;0.82;;
73980;SDS011;62348;51.412;5.436;2022-09-28T16:53:29;1.98;;;0.80;;
73980;SDS011;62348;51.412;5.436;2022-09-28T16:56:13;1.13;;;0.88;;
73980;SDS011;62348;51.412;5.436;2022-09-28T16:58:38;1.05;;;0.40;;
73980;SDS011;62348;51.412;5.436;2022-09-28T17:01:08;0.60;;;0.60;;
73980;SDS011;62348;51.412;5.436;2022-09-28T17:03:35;0.60;;;0.60;;
73980;SDS011;62348;51.412;5.436;2022-09-28T17:06:01;1.33;;;0.50;;
73980;SDS011;62348;51.412;5.436;2022-09-28T17:08:28;0.90;;;0.50;;
73980;SDS011;62348;51.412;5.436;2022-09-28T17:10:54;0.95;;;0.80;;
73980;SDS011;62348;51.412;5.436;2022-09-28T17:13:22;0.50;;;0.50;;
73980;SDS011;62348;51.412;5.436;2022-09-28T17:15:55;0.90;;;0.40;;
73980;SDS011;62348;51.412;5.436;2022-09-28T17:18:21;1.75;;;1.10;;
73980;SDS011;62348;51.412;5.436;2022-09-28T17:20:47;2.60;;;0.75;;
73980;SDS011;62348;51.412;5.436;2022-09-28T17:23:15;1.98;;;0.73;;
73980;SDS011;62348;51.412;5.436;2022-09-28T17:25:42;0.70;;;0.70;;
73980;SDS011;62348;51.412;5.436;2022-09-28T17:28:12;2.25;;;0.93;;
73980;SDS011;62348;51.412;5.436;2022-09-28T17:30:46;1.92;;;0.63;;
73980;SDS011;62348;51.412;5.436;2022-09-28T17:33:11;1.00;;;0.50;;
73980;SDS011;62348;51.412;5.436;2022-09-28T17:35:37;0.57;;;0.50;;
73980;SDS011;62348;51.412;5.436;2022-09-28T17:38:02;1.02;;;0.68;;
73980;SDS011;62348;51.412;5.436;2022-09-28T17:40:28;1.35;;;0.60;;
73980;SDS011;62348;51.412;5.436;2022-09-28T17:42:54;2.22;;;1.48;;
73980;SDS011;62348;51.412;5.436;2022-09-28T17:45:25;2.10;;;0.80;;
73980;SDS011;62348;51.412;5.436;2022-09-28T17:47:52;1.25;;;0.68;;
73980;SDS011;62348;51.412;5.436;2022-09-28T17:50:20;1.00;;;0.90;;
73980;SDS011;62348;51.412;5.436;2022-09-28T17:52:49;1.40;;;1.00;;
73980;SDS011;62348;51.412;5.436;2022-09-28T17:55:26;0.90;;;0.90;;
73980;SDS011;62348;51.412;5.436;2022-09-28T17:57:53;0.88;;;0.73;;
73980;SDS011;62348;51.412;5.436;2022-09-28T18:00:19;1.52;;;0.93;;
73980;SDS011;62348;51.412;5.436;2022-09-28T18:02:46;1.65;;;0.80;;
73980;SDS011;62348;51.412;5.436;2022-09-28T18:05:12;1.20;;;0.88;;